AAR741 RKSI-VTBS
Flight info
| Callsign | AAR741 |
|---|---|
| Flight time | N/A |
| Altitude | 38000 |
| Route | BOPTA2A BOPTA Z51 BEDES Y711 MUGUS Y742 SUBTA/N0482F400 Y742 SALMI Q11 TACLE B591 HCN G86 KAPLI DCT MADRU DCT SULUX DCT IGLEG DCT IKELA/K0902F400 A1 PAPRA/N0488F400 A1 UBL Y20 GRASO Y13 RUKSA DCT EASTE EASTE1C |
| Aircraft | A359/H-SDE2E3GHIJ3J4J5LM1ORWXY/LB1D1 |
Departure
| Time | 2026-05-01 09:59 |
|---|---|
| Airport | Incheon International Airport (RKSI) |
Arrival
| Time | N/A |
|---|---|
| Airport | Suvarnabhumi Airport (VTBS) |
| Time | Latitude | Longitude | Altitude | Speed | Heading |
|---|---|---|---|---|---|
| 2026-05-01 08:54 | 37.46616 | 126.44006 | 34 ft | 0 kts | 55° |
| 2026-05-01 09:27 | 37.46612 | 126.43999 | 34 ft | 2 kts | 55° |
| 2026-05-01 09:27 | 37.46604 | 126.43984 | 34 ft | 2 kts | 55° |
| 2026-05-01 09:27 | 37.46595 | 126.43967 | 34 ft | 2 kts | 55° |
| 2026-05-01 09:28 | 37.46587 | 126.43952 | 34 ft | 2 kts | 55° |
| 2026-05-01 09:28 | 37.46578 | 126.43936 | 34 ft | 2 kts | 56° |
| 2026-05-01 09:28 | 37.46572 | 126.43919 | 34 ft | 2 kts | 80° |
| 2026-05-01 09:28 | 37.46571 | 126.43901 | 34 ft | 2 kts | 101° |
| 2026-05-01 09:29 | 37.46585 | 126.43870 | 34 ft | 1 kts | 142° |
| 2026-05-01 09:29 | 37.46584 | 126.43871 | 34 ft | 2 kts | 142° |
| 2026-05-01 09:30 | 37.46531 | 126.43919 | 34 ft | 1 kts | 144° |
| 2026-05-01 09:30 | 37.46531 | 126.43921 | 34 ft | 0 kts | 144° |
| 2026-05-01 09:41 | 37.46531 | 126.43920 | 34 ft | 0 kts | 144° |
| 2026-05-01 09:42 | 37.46531 | 126.43921 | 34 ft | 0 kts | 144° |
| 2026-05-01 09:43 | 37.46531 | 126.43920 | 34 ft | 0 kts | 144° |
| 2026-05-01 09:44 | 37.46531 | 126.43921 | 34 ft | 0 kts | 144° |
| 2026-05-01 09:46 | 37.46531 | 126.43920 | 34 ft | 0 kts | 144° |
| 2026-05-01 09:46 | 37.46531 | 126.43921 | 34 ft | 0 kts | 144° |
| 2026-05-01 09:47 | 37.46531 | 126.43920 | 34 ft | 0 kts | 144° |
| 2026-05-01 09:48 | 37.46531 | 126.43921 | 34 ft | 0 kts | 144° |
| 2026-05-01 09:48 | 37.46531 | 126.43920 | 34 ft | 0 kts | 144° |
| 2026-05-01 09:49 | 37.46504 | 126.43944 | 34 ft | 15 kts | 144° |
| 2026-05-01 09:49 | 37.46419 | 126.44004 | 34 ft | 0 kts | 173° |
| 2026-05-01 09:49 | 37.46390 | 126.43998 | 34 ft | 7 kts | 204° |
| 2026-05-01 09:49 | 37.46355 | 126.43957 | 34 ft | 7 kts | 235° |
| 2026-05-01 09:50 | 37.46311 | 126.43878 | 34 ft | 14 kts | 234° |
| 2026-05-01 09:50 | 37.46239 | 126.43750 | 34 ft | 20 kts | 235° |
| 2026-05-01 09:50 | 37.46153 | 126.43598 | 34 ft | 21 kts | 235° |
| 2026-05-01 09:50 | 37.46063 | 126.43437 | 34 ft | 22 kts | 236° |
| 2026-05-01 09:51 | 37.45990 | 126.43308 | 34 ft | 11 kts | 233° |
| 2026-05-01 09:51 | 37.45942 | 126.43233 | 34 ft | 9 kts | 219° |
| 2026-05-01 09:51 | 37.45890 | 126.43215 | 34 ft | 4 kts | 168° |
| 2026-05-01 09:51 | 37.45860 | 126.43233 | 34 ft | 4 kts | 150° |
| 2026-05-01 09:52 | 37.45800 | 126.43284 | 34 ft | 14 kts | 144° |
| 2026-05-01 09:52 | 37.45712 | 126.43362 | 34 ft | 16 kts | 144° |
| 2026-05-01 09:52 | 37.45616 | 126.43446 | 34 ft | 17 kts | 144° |
| 2026-05-01 09:52 | 37.45515 | 126.43537 | 34 ft | 18 kts | 144° |
| 2026-05-01 09:53 | 37.45405 | 126.43633 | 34 ft | 19 kts | 144° |
| 2026-05-01 09:53 | 37.45290 | 126.43735 | 34 ft | 21 kts | 143° |
| 2026-05-01 09:53 | 37.45167 | 126.43847 | 34 ft | 22 kts | 144° |
| 2026-05-01 09:53 | 37.45039 | 126.43960 | 34 ft | 23 kts | 142° |
| 2026-05-01 09:54 | 37.44906 | 126.44085 | 34 ft | 24 kts | 144° |
| 2026-05-01 09:54 | 37.44764 | 126.44213 | 34 ft | 25 kts | 144° |
| 2026-05-01 09:54 | 37.44631 | 126.44329 | 34 ft | 10 kts | 144° |
| 2026-05-01 09:54 | 37.44592 | 126.44364 | 34 ft | 12 kts | 144° |
| 2026-05-01 09:55 | 37.44539 | 126.44406 | 34 ft | 7 kts | 161° |
| 2026-05-01 09:55 | 37.44502 | 126.44406 | 34 ft | 1 kts | 198° |
| 2026-05-01 09:55 | 37.44493 | 126.44399 | 34 ft | 1 kts | 214° |
| 2026-05-01 09:55 | 37.44480 | 126.44383 | 34 ft | 3 kts | 230° |
| 2026-05-01 09:56 | 37.44466 | 126.44360 | 34 ft | 3 kts | 234° |
| 2026-05-01 09:56 | 37.44436 | 126.44305 | 33 ft | 0 kts | 234° |
| 2026-05-01 09:57 | 37.44429 | 126.44295 | 33 ft | 8 kts | 234° |
| 2026-05-01 09:57 | 37.44395 | 126.44234 | 34 ft | 2 kts | 235° |
| 2026-05-01 09:58 | 37.44378 | 126.44191 | 34 ft | 15 kts | 256° |
| 2026-05-01 09:58 | 37.44391 | 126.44130 | 34 ft | 6 kts | 304° |
| 2026-05-01 09:58 | 37.44421 | 126.44096 | 34 ft | 3 kts | 327° |
| 2026-05-01 09:58 | 37.44495 | 126.44030 | 33 ft | 21 kts | 324° |
| 2026-05-01 09:59 | 37.44803 | 126.43741 | 34 ft | 87 kts | 322° |
| 2026-05-01 09:59 | 37.45456 | 126.43164 | 34 ft | 142 kts | 324° |
| 2026-05-01 09:59 | 37.46296 | 126.42386 | 421 ft | 149 kts | 312° |
| 2026-05-01 09:59 | 37.47094 | 126.41554 | 943 ft | 158 kts | 317° |
| 2026-05-01 10:00 | 37.48039 | 126.40746 | 1152 ft | 169 kts | 323° |
| 2026-05-01 10:00 | 37.49029 | 126.39893 | 1609 ft | 175 kts | 318° |
| 2026-05-01 10:00 | 37.49914 | 126.38911 | 2370 ft | 170 kts | 316° |
| 2026-05-01 10:00 | 37.50755 | 126.37881 | 3010 ft | 171 kts | 314° |
| 2026-05-01 10:01 | 37.51489 | 126.36712 | 3598 ft | 176 kts | 292° |
| 2026-05-01 10:01 | 37.51566 | 126.35184 | 4265 ft | 179 kts | 270° |
| 2026-05-01 10:01 | 37.51489 | 126.33594 | 4772 ft | 189 kts | 272° |
| 2026-05-01 10:01 | 37.51431 | 126.31894 | 5211 ft | 202 kts | 272° |
| 2026-05-01 10:02 | 37.51364 | 126.30121 | 5783 ft | 208 kts | 272° |
| 2026-05-01 10:02 | 37.51289 | 126.28291 | 6479 ft | 211 kts | 272° |
| 2026-05-01 10:02 | 37.51212 | 126.26442 | 7115 ft | 218 kts | 272° |
| 2026-05-01 10:02 | 37.51136 | 126.24490 | 7580 ft | 233 kts | 272° |
| 2026-05-01 10:03 | 37.51051 | 126.22386 | 8042 ft | 249 kts | 272° |
| 2026-05-01 10:03 | 37.50867 | 126.20133 | 8469 ft | 271 kts | 258° |
| 2026-05-01 10:03 | 37.49839 | 126.18065 | 9081 ft | 294 kts | 226° |
| 2026-05-01 10:03 | 37.48048 | 126.16781 | 9897 ft | 304 kts | 205° |
| 2026-05-01 10:04 | 37.46044 | 126.15886 | 10578 ft | 310 kts | 204° |
| 2026-05-01 10:04 | 37.43993 | 126.14978 | 11257 ft | 316 kts | 203° |
| 2026-05-01 10:04 | 37.41815 | 126.14432 | 11934 ft | 328 kts | 179° |
| 2026-05-01 10:04 | 37.39634 | 126.15197 | 12672 ft | 332 kts | 148° |
| 2026-05-01 10:05 | 37.37914 | 126.17087 | 13426 ft | 330 kts | 128° |
| 2026-05-01 10:05 | 37.36494 | 126.19334 | 14004 ft | 336 kts | 124° |
| 2026-05-01 10:05 | 37.35044 | 126.21693 | 14603 ft | 342 kts | 125° |
| 2026-05-01 10:05 | 37.33530 | 126.24025 | 15250 ft | 346 kts | 127° |